EKRD weather

Randers Airport
Randers, Central Jutland, Denmark

Public forecast

Using degrees Celsius for public forecast. Weather courtesy of forecast.io.

METAR (pilot weather report)

Closest report is Aarhus Airport, 23.0 nm (42.6 km) ESE. Retrieved 2019/05/19 12:20 UTC (0 seconds ago):

EKAH 191220Z 07009KT 9999 BKN008 16/13 Q1011

TAF (pilot weather forecast)

Closest forecast is Aarhus Airport, 23.0 nm (42.6 km) ESE. Retrieved 2019/05/19 12:00 UTC (12 minutes ago):

TAF EKAH 191053Z 1912/2012 07006KT 8000 SCT015 TEMPO 1912/1913 OVC006 BECMG 1920/1923 35003KT 4000 BR TEMPO 2000/2006 0500 FG BKN002 BECMG 2010/2012 9999 NSW BKN010